You are not logged in, Click here to log in
新山一國際機場SGN / VVTS 越南胡志明市
ICAO: VVTS Country: 越南胡志明市
Latitude: 10.8185 Longitude: 106.659
Total Arrivals: 55 Total Departures: 59
Latest Arrival: VJ0859 (RCNN-VVTS)Gudetama. Chen Latest Departure: VJ158 (VVTS-VVNB)CHU. CHUHAO
Scenery:
METAR : VVTS 131000Z 21007KT 9999 SCT017 FEW020CB 29/21 Q1011 NOSIG RMK CB OVER RWY

新山一國際機場SGN

You are accessing this site from IP address 100.26.176.182. Virtual Airline. CMS by phpVMS.Website designed by Zumeweb and edited by Theo Bearman.
There is 0 User(s) Online: | and 5 Guest(s) Online.
All information on this site is for fight simulation purposes only. This site is for flight logging for pilots of Virtual Airline&模擬飛行論壇 FlySim only.